sensor_id;sensor_type;location;lat;lon;timestamp;pressure;altitude;pressure_sealevel;temperature;humidity
49102;BME280;34913;47.520;19.186;2022-10-26T00:01:25;100407.44;;;8.61;100.00
49102;BME280;34913;47.520;19.186;2022-10-26T00:03:54;100426.06;;;8.59;100.00
49102;BME280;34913;47.520;19.186;2022-10-26T00:06:22;100419.66;;;8.63;100.00
49102;BME280;34913;47.520;19.186;2022-10-26T00:08:51;100412.66;;;8.62;100.00
49102;BME280;34913;47.520;19.186;2022-10-26T00:11:18;100400.78;;;8.55;100.00
49102;BME280;34913;47.520;19.186;2022-10-26T00:13:44;100400.91;;;8.54;100.00
49102;BME280;34913;47.520;19.186;2022-10-26T00:16:13;100416.16;;;8.63;100.00
49102;BME280;34913;47.520;19.186;2022-10-26T00:18:39;100409.16;;;8.62;100.00
49102;BME280;34913;47.520;19.186;2022-10-26T00:21:05;100412.56;;;8.64;99.36
49102;BME280;34913;47.520;19.186;2022-10-26T00:23:31;100405.56;;;8.63;99.80
49102;BME280;34913;47.520;19.186;2022-10-26T00:25:57;100409.91;;;8.64;99.48
49102;BME280;34913;47.520;19.186;2022-10-26T00:28:23;100412.84;;;8.59;99.71
49102;BME280;34913;47.520;19.186;2022-10-26T00:30:49;100408.63;;;8.57;100.00
49102;BME280;34913;47.520;19.186;2022-10-26T00:33:14;100413.06;;;8.56;99.60
49102;BME280;34913;47.520;19.186;2022-10-26T00:35:39;100418.66;;;8.52;100.00
49102;BME280;34913;47.520;19.186;2022-10-26T00:38:05;100410.91;;;8.36;99.03
49102;BME280;34913;47.520;19.186;2022-10-26T00:40:30;100414.78;;;8.30;99.45
49102;BME280;34913;47.520;19.186;2022-10-26T00:42:56;100416.38;;;8.33;100.00
49102;BME280;34913;47.520;19.186;2022-10-26T00:45:22;100410.81;;;8.37;100.00
49102;BME280;34913;47.520;19.186;2022-10-26T00:47:51;100409.34;;;8.19;99.66
49102;BME280;34913;47.520;19.186;2022-10-26T00:50:21;100404.91;;;8.20;100.00
49102;BME280;34913;47.520;19.186;2022-10-26T00:52:50;100412.38;;;8.13;100.00
49102;BME280;34913;47.520;19.186;2022-10-26T00:55:18;100409.22;;;8.08;100.00
49102;BME280;34913;47.520;19.186;2022-10-26T00:57:46;100402.97;;;8.09;99.66
49102;BME280;34913;47.520;19.186;2022-10-26T01:00:12;100407.53;;;8.07;99.95
49102;BME280;34913;47.520;19.186;2022-10-26T01:02:38;100407.31;;;8.10;100.00
49102;BME280;34913;47.520;19.186;2022-10-26T01:05:03;100398.75;;;8.06;100.00
49102;BME280;34913;47.520;19.186;2022-10-26T01:07:30;100404.88;;;8.07;100.00
49102;BME280;34913;47.520;19.186;2022-10-26T01:09:57;100409.75;;;8.13;100.00
49102;BME280;34913;47.520;19.186;2022-10-26T01:12:23;100410.41;;;8.17;100.00
49102;BME280;34913;47.520;19.186;2022-10-26T01:14:48;100413.16;;;8.15;100.00
49102;BME280;34913;47.520;19.186;2022-10-26T01:25:26;100398.94;;;8.03;100.00
49102;BME280;34913;47.520;19.186;2022-10-26T01:27:59;100402.81;;;7.98;100.00
49102;BME280;34913;47.520;19.186;2022-10-26T01:30:50;100396.69;;;7.97;100.00
49102;BME280;34913;47.520;19.186;2022-10-26T01:33:29;100401.22;;;7.95;100.00
49102;BME280;34913;47.520;19.186;2022-10-26T01:41:07;100409.88;;;7.84;100.00
49102;BME280;34913;47.520;19.186;2022-10-26T01:43:37;100391.47;;;7.83;100.00
49102;BME280;34913;47.520;19.186;2022-10-26T01:46:05;100394.84;;;7.85;100.00
49102;BME280;34913;47.520;19.186;2022-10-26T01:48:32;100396.19;;;7.78;100.00
49102;BME280;34913;47.520;19.186;2022-10-26T01:50:58;100377.50;;;7.81;100.00
49102;BME280;34913;47.520;19.186;2022-10-26T01:53:26;100386.19;;;7.83;100.00
49102;BME280;34913;47.520;19.186;2022-10-26T01:55:54;100390.91;;;7.78;99.75
49102;BME280;34913;47.520;19.186;2022-10-26T01:58:42;100393.66;;;7.76;100.00
49102;BME280;34913;47.520;19.186;2022-10-26T02:06:34;100387.06;;;7.69;100.00
49102;BME280;34913;47.520;19.186;2022-10-26T02:09:15;100380.94;;;7.69;100.00
49102;BME280;34913;47.520;19.186;2022-10-26T02:11:47;100383.75;;;7.66;100.00
49102;BME280;34913;47.520;19.186;2022-10-26T02:14:34;100385.28;;;7.70;100.00
49102;BME280;34913;47.520;19.186;2022-10-26T02:17:16;100386.13;;;7.70;100.00
49102;BME280;34913;47.520;19.186;2022-10-26T02:22:23;100381.13;;;7.66;100.00
49102;BME280;34913;47.520;19.186;2022-10-26T02:24:51;100387.91;;;7.70;100.00
49102;BME280;34913;47.520;19.186;2022-10-26T02:27:41;100388.97;;;7.67;99.60
49102;BME280;34913;47.520;19.186;2022-10-26T02:30:09;100385.78;;;7.62;100.00
49102;BME280;34913;47.520;19.186;2022-10-26T02:32:39;100383.50;;;7.56;100.00
49102;BME280;34913;47.520;19.186;2022-10-26T02:35:05;100386.81;;;7.60;100.00
49102;BME280;34913;47.520;19.186;2022-10-26T02:37:32;100392.69;;;7.50;100.00
49102;BME280;34913;47.520;19.186;2022-10-26T02:40:02;100387.50;;;7.49;100.00
49102;BME280;34913;47.520;19.186;2022-10-26T02:42:30;100384.97;;;7.47;100.00
49102;BME280;34913;47.520;19.186;2022-10-26T02:45:01;100390.97;;;7.49;100.00
49102;BME280;34913;47.520;19.186;2022-10-26T02:47:27;100397.88;;;7.52;100.00
49102;BME280;34913;47.520;19.186;2022-10-26T02:49:54;100395.97;;;7.54;100.00
49102;BME280;34913;47.520;19.186;2022-10-26T02:52:29;100395.78;;;7.57;100.00
49102;BME280;34913;47.520;19.186;2022-10-26T02:55:14;100398.78;;;7.65;100.00
49102;BME280;34913;47.520;19.186;2022-10-26T02:57:46;100403.66;;;7.71;100.00
49102;BME280;34913;47.520;19.186;2022-10-26T03:00:15;100409.91;;;7.70;100.00
49102;BME280;34913;47.520;19.186;2022-10-26T03:02:42;100411.06;;;7.66;100.00
49102;BME280;34913;47.520;19.186;2022-10-26T03:05:26;100409.28;;;7.52;100.00
49102;BME280;34913;47.520;19.186;2022-10-26T03:07:52;100408.16;;;7.42;100.00
49102;BME280;34913;47.520;19.186;2022-10-26T03:10:19;100415.69;;;7.48;100.00
49102;BME280;34913;47.520;19.186;2022-10-26T03:12:44;100411.38;;;7.47;100.00
49102;BME280;34913;47.520;19.186;2022-10-26T03:15:10;100423.13;;;7.56;100.00
49102;BME280;34913;47.520;19.186;2022-10-26T03:17:35;100422.69;;;7.49;100.00
49102;BME280;34913;47.520;19.186;2022-10-26T03:20:01;100426.56;;;7.44;100.00
49102;BME280;34913;47.520;19.186;2022-10-26T03:22:27;100423.63;;;7.48;100.00
49102;BME280;34913;47.520;19.186;2022-10-26T03:24:53;100423.44;;;7.51;100.00
49102;BME280;34913;47.520;19.186;2022-10-26T03:27:19;100432.50;;;7.47;100.00
49102;BME280;34913;47.520;19.186;2022-10-26T03:29:44;100439.47;;;7.48;100.00
49102;BME280;34913;47.520;19.186;2022-10-26T03:32:09;100433.06;;;7.52;100.00
49102;BME280;34913;47.520;19.186;2022-10-26T03:34:35;100438.25;;;7.54;100.00
49102;BME280;34913;47.520;19.186;2022-10-26T03:37:00;100439.19;;;7.53;100.00
49102;BME280;34913;47.520;19.186;2022-10-26T03:39:26;100443.53;;;7.54;100.00
49102;BME280;34913;47.520;19.186;2022-10-26T03:41:51;100441.72;;;7.54;100.00
49102;BME280;34913;47.520;19.186;2022-10-26T03:44:16;100442.69;;;7.53;100.00
49102;BME280;34913;47.520;19.186;2022-10-26T03:46:42;100432.97;;;7.54;100.00
49102;BME280;34913;47.520;19.186;2022-10-26T03:49:07;100437.28;;;7.55;100.00
49102;BME280;34913;47.520;19.186;2022-10-26T03:51:32;100434.56;;;7.56;100.00
49102;BME280;34913;47.520;19.186;2022-10-26T03:53:58;100438.59;;;7.62;100.00
49102;BME280;34913;47.520;19.186;2022-10-26T03:56:23;100442.78;;;7.66;100.00
49102;BME280;34913;47.520;19.186;2022-10-26T03:58:49;100448.59;;;7.71;100.00
49102;BME280;34913;47.520;19.186;2022-10-26T04:01:14;100446.97;;;7.83;100.00
49102;BME280;34913;47.520;19.186;2022-10-26T04:03:40;100457.44;;;7.84;100.00
49102;BME280;34913;47.520;19.186;2022-10-26T04:06:05;100456.50;;;7.86;100.00
49102;BME280;34913;47.520;19.186;2022-10-26T04:08:31;100465.53;;;7.81;100.00
49102;BME280;34913;47.520;19.186;2022-10-26T04:10:56;100456.34;;;7.74;100.00
49102;BME280;34913;47.520;19.186;2022-10-26T04:13:22;100470.47;;;7.73;100.00
49102;BME280;34913;47.520;19.186;2022-10-26T04:15:47;100462.53;;;7.73;100.00
49102;BME280;34913;47.520;19.186;2022-10-26T04:18:13;100466.03;;;7.74;100.00
49102;BME280;34913;47.520;19.186;2022-10-26T04:20:39;100458.56;;;7.80;100.00
49102;BME280;34913;47.520;19.186;2022-10-26T04:23:09;100458.56;;;7.80;100.00
49102;BME280;34913;47.520;19.186;2022-10-26T04:25:35;100457.63;;;7.81;100.00
49102;BME280;34913;47.520;19.186;2022-10-26T04:28:03;100465.25;;;7.86;100.00
49102;BME280;34913;47.520;19.186;2022-10-26T04:30:29;100468.47;;;7.91;100.00
49102;BME280;34913;47.520;19.186;2022-10-26T04:32:55;100460.34;;;7.94;100.00
49102;BME280;34913;47.520;19.186;2022-10-26T04:35:20;100469.97;;;7.95;100.00
49102;BME280;34913;47.520;19.186;2022-10-26T04:37:46;100459.38;;;7.95;100.00
49102;BME280;34913;47.520;19.186;2022-10-26T04:40:12;100457.78;;;7.93;100.00
49102;BME280;34913;47.520;19.186;2022-10-26T04:42:42;100462.03;;;7.95;100.00
49102;BME280;34913;47.520;19.186;2022-10-26T04:45:08;100456.78;;;7.81;100.00
49102;BME280;34913;47.520;19.186;2022-10-26T04:47:33;100456.69;;;7.82;100.00
49102;BME280;34913;47.520;19.186;2022-10-26T04:49:59;100447.94;;;7.82;100.00
49102;BME280;34913;47.520;19.186;2022-10-26T04:52:24;100457.22;;;7.88;100.00
49102;BME280;34913;47.520;19.186;2022-10-26T04:54:50;100468.13;;;7.83;100.00
49102;BME280;34913;47.520;19.186;2022-10-26T04:57:15;100469.25;;;7.79;100.00
49102;BME280;34913;47.520;19.186;2022-10-26T04:59:40;100463.09;;;7.78;100.00
49102;BME280;34913;47.520;19.186;2022-10-26T05:02:06;100461.22;;;7.80;100.00
49102;BME280;34913;47.520;19.186;2022-10-26T05:04:31;100458.50;;;7.82;100.00
49102;BME280;34913;47.520;19.186;2022-10-26T05:06:56;100453.28;;;7.80;100.00
49102;BME280;34913;47.520;19.186;2022-10-26T05:09:22;100458.38;;;7.83;100.00
49102;BME280;34913;47.520;19.186;2022-10-26T05:11:47;100453.75;;;7.87;100.00
49102;BME280;34913;47.520;19.186;2022-10-26T05:14:13;100454.41;;;7.91;100.00
49102;BME280;34913;47.520;19.186;2022-10-26T05:16:38;100438.94;;;7.84;100.00
49102;BME280;34913;47.520;19.186;2022-10-26T05:19:03;100455.78;;;7.96;100.00
49102;BME280;34913;47.520;19.186;2022-10-26T05:21:29;100458.78;;;8.04;100.00
49102;BME280;34913;47.520;19.186;2022-10-26T05:23:55;100448.31;;;8.03;100.00
49102;BME280;34913;47.520;19.186;2022-10-26T05:26:23;100458.41;;;8.10;100.00
49102;BME280;34913;47.520;19.186;2022-10-26T05:28:50;100462.09;;;8.08;100.00
49102;BME280;34913;47.520;19.186;2022-10-26T05:31:15;100463.78;;;8.09;100.00
49102;BME280;34913;47.520;19.186;2022-10-26T05:33:41;100465.47;;;8.10;100.00
49102;BME280;34913;47.520;19.186;2022-10-26T05:36:07;100479.53;;;8.10;100.00
49102;BME280;34913;47.520;19.186;2022-10-26T05:38:32;100475.09;;;8.11;100.00
49102;BME280;34913;47.520;19.186;2022-10-26T05:40:58;100462.00;;;8.09;100.00
49102;BME280;34913;47.520;19.186;2022-10-26T05:43:25;100468.56;;;8.17;100.00
49102;BME280;34913;47.520;19.186;2022-10-26T05:45:51;100475.06;;;8.25;100.00
49102;BME280;34913;47.520;19.186;2022-10-26T05:48:17;100471.91;;;8.33;100.00
49102;BME280;34913;47.520;19.186;2022-10-26T05:50:43;100477.69;;;8.39;100.00
49102;BME280;34913;47.520;19.186;2022-10-26T05:53:08;100480.00;;;8.44;100.00
49102;BME280;34913;47.520;19.186;2022-10-26T05:55:34;100476.72;;;8.41;100.00
49102;BME280;34913;47.520;19.186;2022-10-26T05:57:59;100472.75;;;8.33;100.00
49102;BME280;34913;47.520;19.186;2022-10-26T06:00:27;100481.53;;;8.34;100.00
49102;BME280;34913;47.520;19.186;2022-10-26T06:05:56;100487.00;;;8.45;100.00
49102;BME280;34913;47.520;19.186;2022-10-26T06:08:24;100485.56;;;8.54;100.00
49102;BME280;34913;47.520;19.186;2022-10-26T06:10:50;100489.41;;;8.62;100.00
49102;BME280;34913;47.520;19.186;2022-10-26T06:13:17;100496.91;;;8.68;100.00
49102;BME280;34913;47.520;19.186;2022-10-26T06:18:41;100502.13;;;8.83;100.00
49102;BME280;34913;47.520;19.186;2022-10-26T06:24:01;100496.19;;;8.79;100.00
49102;BME280;34913;47.520;19.186;2022-10-26T06:29:45;100511.91;;;8.95;100.00
49102;BME280;34913;47.520;19.186;2022-10-26T06:32:15;100513.06;;;9.04;100.00
49102;BME280;34913;47.520;19.186;2022-10-26T06:34:45;100512.31;;;9.14;100.00
49102;BME280;34913;47.520;19.186;2022-10-26T06:37:12;100510.97;;;9.21;100.00
49102;BME280;34913;47.520;19.186;2022-10-26T06:39:43;100518.91;;;9.34;100.00
49102;BME280;34913;47.520;19.186;2022-10-26T06:42:10;100519.13;;;9.44;100.00
49102;BME280;34913;47.520;19.186;2022-10-26T06:44:36;100522.72;;;9.56;100.00
49102;BME280;34913;47.520;19.186;2022-10-26T06:52:14;100518.44;;;9.91;100.00
49102;BME280;34913;47.520;19.186;2022-10-26T06:54:49;100522.63;;;10.06;100.00
49102;BME280;34913;47.520;19.186;2022-10-26T06:57:20;100523.31;;;10.21;100.00
49102;BME280;34913;47.520;19.186;2022-10-26T07:02:16;100535.44;;;10.49;100.00
49102;BME280;34913;47.520;19.186;2022-10-26T07:04:42;100529.84;;;10.65;100.00
49102;BME280;34913;47.520;19.186;2022-10-26T07:07:10;100534.84;;;10.81;100.00
49102;BME280;34913;47.520;19.186;2022-10-26T07:09:36;100531.88;;;10.97;100.00
49102;BME280;34913;47.520;19.186;2022-10-26T07:12:02;100543.16;;;11.11;100.00
49102;BME280;34913;47.520;19.186;2022-10-26T07:14:27;100539.47;;;11.25;100.00
49102;BME280;34913;47.520;19.186;2022-10-26T07:16:53;100538.41;;;11.39;100.00
49102;BME280;34913;47.520;19.186;2022-10-26T07:19:18;100537.44;;;11.51;98.22
49102;BME280;34913;47.520;19.186;2022-10-26T07:21:44;100536.50;;;11.63;96.11
49102;BME280;34913;47.520;19.186;2022-10-26T07:24:09;100525.13;;;11.72;94.48
49102;BME280;34913;47.520;19.186;2022-10-26T07:26:35;100527.09;;;11.82;93.57
49102;BME280;34913;47.520;19.186;2022-10-26T07:29:00;100531.91;;;11.99;93.17
49102;BME280;34913;47.520;19.186;2022-10-26T07:31:26;100538.19;;;12.09;93.73
49102;BME280;34913;47.520;19.186;2022-10-26T07:33:54;100535.16;;;12.25;93.21
49102;BME280;34913;47.520;19.186;2022-10-26T07:36:19;100537.41;;;12.41;92.59
49102;BME280;34913;47.520;19.186;2022-10-26T07:38:45;100550.31;;;12.56;90.85
49102;BME280;34913;47.520;19.186;2022-10-26T07:41:10;100539.94;;;12.74;89.42
49102;BME280;34913;47.520;19.186;2022-10-26T07:43:36;100538.34;;;12.83;88.83
49102;BME280;34913;47.520;19.186;2022-10-26T07:46:02;100535.38;;;12.97;88.75
49102;BME280;34913;47.520;19.186;2022-10-26T07:48:27;100536.47;;;13.16;87.10
49102;BME280;34913;47.520;19.186;2022-10-26T07:50:53;100536.31;;;13.28;87.09
49102;BME280;34913;47.520;19.186;2022-10-26T07:53:18;100532.03;;;13.37;86.69
49102;BME280;34913;47.520;19.186;2022-10-26T07:55:54;100536.91;;;13.62;85.31
49102;BME280;34913;47.520;19.186;2022-10-26T07:58:20;100535.44;;;13.79;84.26
49102;BME280;34913;47.520;19.186;2022-10-26T08:00:48;100528.91;;;13.93;83.91
49102;BME280;34913;47.520;19.186;2022-10-26T08:03:15;100533.28;;;14.04;83.99
49102;BME280;34913;47.520;19.186;2022-10-26T08:05:40;100531.47;;;14.14;83.96
49102;BME280;34913;47.520;19.186;2022-10-26T08:08:06;100536.28;;;14.30;82.42
49102;BME280;34913;47.520;19.186;2022-10-26T08:10:31;100529.31;;;14.38;83.40
49102;BME280;34913;47.520;19.186;2022-10-26T08:12:57;100531.69;;;14.41;83.71
49102;BME280;34913;47.520;19.186;2022-10-26T08:15:22;100522.88;;;14.50;83.19
49102;BME280;34913;47.520;19.186;2022-10-26T08:17:47;100523.16;;;14.67;82.55
49102;BME280;34913;47.520;19.186;2022-10-26T08:20:13;100520.22;;;14.79;82.00
49102;BME280;34913;47.520;19.186;2022-10-26T08:22:38;100520.38;;;14.88;81.86
49102;BME280;34913;47.520;19.186;2022-10-26T08:25:04;100522.03;;;14.98;81.17
49102;BME280;34913;47.520;19.186;2022-10-26T08:27:29;100520.75;;;15.12;80.27
49102;BME280;34913;47.520;19.186;2022-10-26T08:29:55;100524.09;;;15.24;80.54
49102;BME280;34913;47.520;19.186;2022-10-26T08:32:20;100527.16;;;15.39;79.37
49102;BME280;34913;47.520;19.186;2022-10-26T08:34:45;100526.75;;;15.43;80.02
49102;BME280;34913;47.520;19.186;2022-10-26T08:37:11;100529.69;;;15.50;79.77
49102;BME280;34913;47.520;19.186;2022-10-26T08:39:36;100539.19;;;15.72;79.05
49102;BME280;34913;47.520;19.186;2022-10-26T08:42:10;100537.19;;;15.83;78.78
49102;BME280;34913;47.520;19.186;2022-10-26T08:44:46;100537.81;;;16.05;77.16
49102;BME280;34913;47.520;19.186;2022-10-26T08:49:48;100542.63;;;16.46;74.24
49102;BME280;34913;47.520;19.186;2022-10-26T08:52:19;100545.75;;;16.42;74.77
49102;BME280;34913;47.520;19.186;2022-10-26T08:54:54;100543.91;;;16.42;75.32
49102;BME280;34913;47.520;19.186;2022-10-26T08:57:26;100545.78;;;16.60;73.12
49102;BME280;34913;47.520;19.186;2022-10-26T09:02:27;100538.13;;;16.47;74.41
49102;BME280;34913;47.520;19.186;2022-10-26T09:04:53;100544.06;;;16.59;73.26
49102;BME280;34913;47.520;19.186;2022-10-26T09:15:59;100553.78;;;16.87;74.30
49102;BME280;34913;47.520;19.186;2022-10-26T09:18:42;100556.53;;;16.95;71.86
49102;BME280;34913;47.520;19.186;2022-10-26T09:24:19;100563.34;;;17.08;71.03
49102;BME280;34913;47.520;19.186;2022-10-26T09:29:17;100563.44;;;17.16;72.26
49102;BME280;34913;47.520;19.186;2022-10-26T09:31:45;100564.31;;;17.24;71.74
49102;BME280;34913;47.520;19.186;2022-10-26T09:34:23;100573.13;;;17.35;70.54
49102;BME280;34913;47.520;19.186;2022-10-26T09:36:53;100585.19;;;17.30;71.80
49102;BME280;34913;47.520;19.186;2022-10-26T09:39:29;100582.78;;;17.27;72.04
49102;BME280;34913;47.520;19.186;2022-10-26T09:42:16;100573.59;;;17.30;71.45
49102;BME280;34913;47.520;19.186;2022-10-26T09:44:54;100583.34;;;17.31;71.95
49102;BME280;34913;47.520;19.186;2022-10-26T09:47:44;100584.19;;;17.32;71.66
49102;BME280;34913;47.520;19.186;2022-10-26T09:52:41;100588.63;;;17.23;72.40
49102;BME280;34913;47.520;19.186;2022-10-26T09:55:10;100579.59;;;17.24;71.57
49102;BME280;34913;47.520;19.186;2022-10-26T09:57:39;100580.03;;;17.19;73.43
49102;BME280;34913;47.520;19.186;2022-10-26T10:00:12;100578.03;;;17.39;72.09
49102;BME280;34913;47.520;19.186;2022-10-26T10:02:40;100573.06;;;17.52;70.89
49102;BME280;34913;47.520;19.186;2022-10-26T10:07:49;100575.13;;;17.33;71.92
49102;BME280;34913;47.520;19.186;2022-10-26T10:10:18;100575.78;;;17.09;75.20
49102;BME280;34913;47.520;19.186;2022-10-26T10:12:44;100584.41;;;17.38;73.82
49102;BME280;34913;47.520;19.186;2022-10-26T10:15:24;100588.03;;;17.55;73.66
49102;BME280;34913;47.520;19.186;2022-10-26T10:17:52;100588.59;;;17.67;72.29
49102;BME280;34913;47.520;19.186;2022-10-26T10:20:27;100593.03;;;17.76;72.56
49102;BME280;34913;47.520;19.186;2022-10-26T10:22:58;100584.53;;;17.80;72.15
49102;BME280;34913;47.520;19.186;2022-10-26T10:25:37;100589.78;;;17.90;71.86
49102;BME280;34913;47.520;19.186;2022-10-26T10:28:36;100591.28;;;17.93;72.54
49102;BME280;34913;47.520;19.186;2022-10-26T10:31:04;100590.41;;;17.84;72.63
49102;BME280;34913;47.520;19.186;2022-10-26T10:36:01;100587.50;;;17.51;73.64
49102;BME280;34913;47.520;19.186;2022-10-26T10:38:28;100588.59;;;17.41;73.69
49102;BME280;34913;47.520;19.186;2022-10-26T10:40:56;100580.59;;;17.23;74.33
49102;BME280;34913;47.520;19.186;2022-10-26T10:43:22;100582.19;;;17.16;75.67
49102;BME280;34913;47.520;19.186;2022-10-26T10:45:50;100578.06;;;17.03;76.03
49102;BME280;34913;47.520;19.186;2022-10-26T10:48:27;100579.91;;;17.03;75.60
49102;BME280;34913;47.520;19.186;2022-10-26T10:50:56;100579.16;;;16.93;76.78
49102;BME280;34913;47.520;19.186;2022-10-26T11:01:20;100572.16;;;17.00;77.22
49102;BME280;34913;47.520;19.186;2022-10-26T11:06:45;100571.63;;;17.14;76.30
49102;BME280;34913;47.520;19.186;2022-10-26T11:09:17;100570.63;;;17.15;77.15
49102;BME280;34913;47.520;19.186;2022-10-26T11:11:47;100566.63;;;17.19;76.50
49102;BME280;34913;47.520;19.186;2022-10-26T11:17:20;100571.41;;;17.08;76.38
49102;BME280;34913;47.520;19.186;2022-10-26T11:19:59;100563.66;;;17.05;77.17
49102;BME280;34913;47.520;19.186;2022-10-26T11:22:33;100564.66;;;17.03;77.67
49102;BME280;34913;47.520;19.186;2022-10-26T11:30:20;100566.50;;;17.03;76.61
49102;BME280;34913;47.520;19.186;2022-10-26T11:32:52;100566.25;;;16.96;76.61
49102;BME280;34913;47.520;19.186;2022-10-26T11:40:58;100559.38;;;16.94;78.24
49102;BME280;34913;47.520;19.186;2022-10-26T11:46:22;100550.25;;;16.87;78.31
49102;BME280;34913;47.520;19.186;2022-10-26T11:49:10;100547.56;;;16.87;79.61
49102;BME280;34913;47.520;19.186;2022-10-26T11:52:12;100551.50;;;16.92;82.00
49102;BME280;34913;47.520;19.186;2022-10-26T11:55:02;100546.25;;;17.09;81.68
49102;BME280;34913;47.520;19.186;2022-10-26T11:57:32;100538.56;;;17.14;79.32
49102;BME280;34913;47.520;19.186;2022-10-26T12:00:05;100538.72;;;17.12;78.56
49102;BME280;34913;47.520;19.186;2022-10-26T12:02:37;100537.72;;;17.13;78.65
49102;BME280;34913;47.520;19.186;2022-10-26T12:08:02;100541.34;;;17.04;78.92
49102;BME280;34913;47.520;19.186;2022-10-26T12:10:30;100546.19;;;17.00;79.60
49102;BME280;34913;47.520;19.186;2022-10-26T12:13:21;100541.28;;;16.96;79.75
49102;BME280;34913;47.520;19.186;2022-10-26T12:18:41;100539.22;;;16.90;80.71
49102;BME280;34913;47.520;19.186;2022-10-26T12:21:08;100539.38;;;16.88;80.77
49102;BME280;34913;47.520;19.186;2022-10-26T12:23:51;100538.69;;;16.86;81.80
49102;BME280;34913;47.520;19.186;2022-10-26T12:29:12;100544.81;;;16.96;81.10
49102;BME280;34913;47.520;19.186;2022-10-26T12:34:05;100548.25;;;17.07;80.24
49102;BME280;34913;47.520;19.186;2022-10-26T12:39:38;100543.59;;;17.09;79.29
49102;BME280;34913;47.520;19.186;2022-10-26T12:47:00;100545.53;;;17.24;78.88
49102;BME280;34913;47.520;19.186;2022-10-26T12:55:32;100543.81;;;17.41;78.11
49102;BME280;34913;47.520;19.186;2022-10-26T13:06:16;100537.38;;;17.34;78.54
49102;BME280;34913;47.520;19.186;2022-10-26T13:08:51;100544.94;;;17.30;78.14
49102;BME280;34913;47.520;19.186;2022-10-26T13:11:22;100547.06;;;17.27;78.15
49102;BME280;34913;47.520;19.186;2022-10-26T13:14:17;100541.31;;;17.22;79.03
49102;BME280;34913;47.520;19.186;2022-10-26T13:16:44;100539.81;;;17.19;79.61
49102;BME280;34913;47.520;19.186;2022-10-26T13:22:19;100540.69;;;17.28;79.09
49102;BME280;34913;47.520;19.186;2022-10-26T13:24:53;100547.63;;;17.30;80.27
49102;BME280;34913;47.520;19.186;2022-10-26T13:27:23;100541.25;;;17.32;79.00
49102;BME280;34913;47.520;19.186;2022-10-26T13:32:35;100540.69;;;17.28;78.89
49102;BME280;34913;47.520;19.186;2022-10-26T13:35:04;100548.91;;;17.26;79.65
49102;BME280;34913;47.520;19.186;2022-10-26T13:37:32;100545.00;;;17.21;79.63
49102;BME280;34913;47.520;19.186;2022-10-26T13:39:59;100543.81;;;17.15;79.25
49102;BME280;34913;47.520;19.186;2022-10-26T13:42:43;100549.16;;;17.15;79.19
49102;BME280;34913;47.520;19.186;2022-10-26T13:45:17;100548.78;;;17.10;79.47
49102;BME280;34913;47.520;19.186;2022-10-26T13:47:47;100545.59;;;17.07;79.80
49102;BME280;34913;47.520;19.186;2022-10-26T13:50:16;100539.50;;;17.05;80.58
49102;BME280;34913;47.520;19.186;2022-10-26T13:52:56;100543.97;;;16.96;79.91
49102;BME280;34913;47.520;19.186;2022-10-26T13:55:32;100543.97;;;16.96;80.55
49102;BME280;34913;47.520;19.186;2022-10-26T13:58:21;100544.97;;;16.95;80.60
49102;BME280;34913;47.520;19.186;2022-10-26T14:01:12;100534.56;;;16.92;80.46
49102;BME280;34913;47.520;19.186;2022-10-26T14:03:39;100540.06;;;16.90;80.60
49102;BME280;34913;47.520;19.186;2022-10-26T14:06:32;100539.22;;;16.90;80.96
49102;BME280;34913;47.520;19.186;2022-10-26T14:09:18;100540.47;;;16.78;80.43
49102;BME280;34913;47.520;19.186;2022-10-26T14:11:53;100549.41;;;16.68;81.19
49102;BME280;34913;47.520;19.186;2022-10-26T14:14:23;100542.63;;;16.64;81.99
49102;BME280;34913;47.520;19.186;2022-10-26T14:16:51;100541.78;;;16.64;82.86
49102;BME280;34913;47.520;19.186;2022-10-26T14:19:29;100550.69;;;16.64;83.38
49102;BME280;34913;47.520;19.186;2022-10-26T14:21:55;100554.34;;;16.63;84.54
49102;BME280;34913;47.520;19.186;2022-10-26T14:24:25;100551.84;;;16.62;85.11
49102;BME280;34913;47.520;19.186;2022-10-26T14:26:51;100549.59;;;16.57;85.40
49102;BME280;34913;47.520;19.186;2022-10-26T14:29:21;100555.13;;;16.56;86.02
49102;BME280;34913;47.520;19.186;2022-10-26T14:31:48;100554.03;;;16.48;86.19
49102;BME280;34913;47.520;19.186;2022-10-26T14:34:15;100554.63;;;16.42;85.74
49102;BME280;34913;47.520;19.186;2022-10-26T14:37:01;100555.47;;;16.43;85.98
49102;BME280;34913;47.520;19.186;2022-10-26T14:39:34;100547.06;;;16.38;86.09
49102;BME280;34913;47.520;19.186;2022-10-26T14:42:12;100548.22;;;16.35;85.67
49102;BME280;34913;47.520;19.186;2022-10-26T14:44:39;100545.91;;;16.40;85.33
49102;BME280;34913;47.520;19.186;2022-10-26T14:47:12;100555.63;;;16.41;86.62
49102;BME280;34913;47.520;19.186;2022-10-26T14:49:44;100547.81;;;16.30;85.22
49102;BME280;34913;47.520;19.186;2022-10-26T14:52:22;100557.00;;;16.28;86.54
49102;BME280;34913;47.520;19.186;2022-10-26T14:55:03;100537.28;;;16.19;87.04
49102;BME280;34913;47.520;19.186;2022-10-26T14:57:37;100557.13;;;16.26;86.37
49102;BME280;34913;47.520;19.186;2022-10-26T15:00:17;100557.44;;;16.23;86.25
49102;BME280;34913;47.520;19.186;2022-10-26T15:02:48;100556.44;;;16.24;86.72
49102;BME280;34913;47.520;19.186;2022-10-26T15:07:52;100550.25;;;16.24;87.27
49102;BME280;34913;47.520;19.186;2022-10-26T15:13:41;100560.63;;;16.36;89.48